sensor_id;sensor_type;location;lat;lon;timestamp;temperature;humidity
210;DHT22;90;48.810;9.120;2024-01-06T00:19:02;6.70;87.20
210;DHT22;90;48.810;9.120;2024-01-06T00:22:29;6.70;86.80
210;DHT22;90;48.810;9.120;2024-01-06T00:26:00;6.60;87.20
210;DHT22;90;48.810;9.120;2024-01-06T00:29:58;6.60;86.80
210;DHT22;90;48.810;9.120;2024-01-06T00:36:29;6.70;87.00
210;DHT22;90;48.810;9.120;2024-01-06T00:42:51;6.70;86.70
210;DHT22;90;48.810;9.120;2024-01-06T00:45:58;6.70;86.30
210;DHT22;90;48.810;9.120;2024-01-06T00:49:05;6.70;86.20
210;DHT22;90;48.810;9.120;2024-01-06T00:59:05;6.70;86.20
210;DHT22;90;48.810;9.120;2024-01-06T01:06:24;6.70;86.10
210;DHT22;90;48.810;9.120;2024-01-06T01:09:19;6.70;86.10
210;DHT22;90;48.810;9.120;2024-01-06T01:15:13;6.60;86.10
210;DHT22;90;48.810;9.120;2024-01-06T01:30:16;6.50;86.60
210;DHT22;90;48.810;9.120;2024-01-06T01:45:28;6.40;86.60
210;DHT22;90;48.810;9.120;2024-01-06T01:48:29;6.40;86.50
210;DHT22;90;48.810;9.120;2024-01-06T01:51:29;6.40;86.70
210;DHT22;90;48.810;9.120;2024-01-06T01:54:37;6.40;86.70
210;DHT22;90;48.810;9.120;2024-01-06T01:57:21;6.40;86.60
210;DHT22;90;48.810;9.120;2024-01-06T02:04:06;6.40;86.50
210;DHT22;90;48.810;9.120;2024-01-06T02:06:43;6.40;86.70
210;DHT22;90;48.810;9.120;2024-01-06T02:13:13;6.40;86.10
210;DHT22;90;48.810;9.120;2024-01-06T02:16:01;6.40;85.60
210;DHT22;90;48.810;9.120;2024-01-06T02:40:49;6.30;84.80
210;DHT22;90;48.810;9.120;2024-01-06T02:47:58;6.30;84.50
210;DHT22;90;48.810;9.120;2024-01-06T02:50:52;6.30;84.30
210;DHT22;90;48.810;9.120;2024-01-06T03:16:00;6.20;84.30
210;DHT22;90;48.810;9.120;2024-01-06T03:27:49;6.10;84.40
210;DHT22;90;48.810;9.120;2024-01-06T03:46:39;6.10;84.10
210;DHT22;90;48.810;9.120;2024-01-06T03:49:35;6.10;83.90
210;DHT22;90;48.810;9.120;2024-01-06T03:52:45;6.00;84.30
210;DHT22;90;48.810;9.120;2024-01-06T04:02:35;6.10;83.60
210;DHT22;90;48.810;9.120;2024-01-06T04:05:12;6.10;83.30
210;DHT22;90;48.810;9.120;2024-01-06T04:12:58;6.00;84.00
210;DHT22;90;48.810;9.120;2024-01-06T04:24:55;6.10;83.90
210;DHT22;90;48.810;9.120;2024-01-06T04:37:32;6.00;83.60
210;DHT22;90;48.810;9.120;2024-01-06T04:40:43;6.10;83.20
210;DHT22;90;48.810;9.120;2024-01-06T04:47:16;6.00;83.40
210;DHT22;90;48.810;9.120;2024-01-06T04:49:52;6.10;83.20
210;DHT22;90;48.810;9.120;2024-01-06T04:52:31;6.00;83.40
210;DHT22;90;48.810;9.120;2024-01-06T04:59:30;6.00;83.30
210;DHT22;90;48.810;9.120;2024-01-06T05:02:29;5.90;83.60
210;DHT22;90;48.810;9.120;2024-01-06T05:05:12;5.90;83.80
210;DHT22;90;48.810;9.120;2024-01-06T05:12:14;6.00;83.50
210;DHT22;90;48.810;9.120;2024-01-06T05:15:37;6.00;83.50
210;DHT22;90;48.810;9.120;2024-01-06T05:18:28;6.00;83.50
210;DHT22;90;48.810;9.120;2024-01-06T05:49:03;6.10;83.90
210;DHT22;90;48.810;9.120;2024-01-06T05:52:12;6.10;83.70
210;DHT22;90;48.810;9.120;2024-01-06T05:55:01;6.00;84.10
210;DHT22;90;48.810;9.120;2024-01-06T06:01:18;6.00;84.20
210;DHT22;90;48.810;9.120;2024-01-06T06:14:50;6.20;84.20
210;DHT22;90;48.810;9.120;2024-01-06T06:17:29;6.20;84.00
210;DHT22;90;48.810;9.120;2024-01-06T06:20:05;6.20;83.90
210;DHT22;90;48.810;9.120;2024-01-06T06:22:32;6.20;83.90
210;DHT22;90;48.810;9.120;2024-01-06T06:24:59;6.20;83.90
210;DHT22;90;48.810;9.120;2024-01-06T06:27:27;6.20;84.00
210;DHT22;90;48.810;9.120;2024-01-06T06:30:08;6.20;83.90
210;DHT22;90;48.810;9.120;2024-01-06T06:32:37;6.20;84.00
210;DHT22;90;48.810;9.120;2024-01-06T06:35:06;6.20;83.90
210;DHT22;90;48.810;9.120;2024-01-06T06:37:33;6.30;83.80
210;DHT22;90;48.810;9.120;2024-01-06T06:40:00;6.30;83.50
210;DHT22;90;48.810;9.120;2024-01-06T06:42:27;6.30;83.60
210;DHT22;90;48.810;9.120;2024-01-06T06:44:55;6.30;83.70
210;DHT22;90;48.810;9.120;2024-01-06T06:47:23;6.40;83.80
210;DHT22;90;48.810;9.120;2024-01-06T06:49:50;6.30;83.70
210;DHT22;90;48.810;9.120;2024-01-06T06:52:17;6.30;83.80
210;DHT22;90;48.810;9.120;2024-01-06T06:54:43;6.30;83.70
210;DHT22;90;48.810;9.120;2024-01-06T06:57:10;6.40;83.70
210;DHT22;90;48.810;9.120;2024-01-06T06:59:37;6.30;83.80
210;DHT22;90;48.810;9.120;2024-01-06T07:05:21;6.30;84.00
210;DHT22;90;48.810;9.120;2024-01-06T07:08:06;6.30;84.10
210;DHT22;90;48.810;9.120;2024-01-06T07:11:19;6.30;84.30
210;DHT22;90;48.810;9.120;2024-01-06T07:13:59;6.30;84.20
210;DHT22;90;48.810;9.120;2024-01-06T07:16:43;6.30;84.00
210;DHT22;90;48.810;9.120;2024-01-06T07:19:18;6.20;84.00
210;DHT22;90;48.810;9.120;2024-01-06T07:25:11;6.40;84.30
210;DHT22;90;48.810;9.120;2024-01-06T07:31:11;6.40;81.70
210;DHT22;90;48.810;9.120;2024-01-06T07:33:48;6.30;81.40
210;DHT22;90;48.810;9.120;2024-01-06T07:36:19;6.30;81.50
210;DHT22;90;48.810;9.120;2024-01-06T07:39:06;6.30;81.40
210;DHT22;90;48.810;9.120;2024-01-06T07:41:34;6.30;81.60
210;DHT22;90;48.810;9.120;2024-01-06T07:44:01;6.40;81.40
210;DHT22;90;48.810;9.120;2024-01-06T07:46:29;6.90;88.70
210;DHT22;90;48.810;9.120;2024-01-06T07:49:22;6.90;82.60
210;DHT22;90;48.810;9.120;2024-01-06T07:52:20;6.90;81.50
210;DHT22;90;48.810;9.120;2024-01-06T07:54:53;6.70;80.40
210;DHT22;90;48.810;9.120;2024-01-06T07:57:44;6.70;80.00
210;DHT22;90;48.810;9.120;2024-01-06T08:00:17;6.50;79.90
210;DHT22;90;48.810;9.120;2024-01-06T08:02:53;7.30;96.50
210;DHT22;90;48.810;9.120;2024-01-06T08:05:36;7.10;87.20
210;DHT22;90;48.810;9.120;2024-01-06T08:11:34;7.00;82.70
210;DHT22;90;48.810;9.120;2024-01-06T08:14:13;6.90;81.10
210;DHT22;90;48.810;9.120;2024-01-06T08:16:42;7.00;87.90
210;DHT22;90;48.810;9.120;2024-01-06T08:19:09;7.00;83.20
210;DHT22;90;48.810;9.120;2024-01-06T08:21:39;7.00;82.50
210;DHT22;90;48.810;9.120;2024-01-06T08:24:07;7.00;81.40
210;DHT22;90;48.810;9.120;2024-01-06T08:26:40;6.90;80.30
210;DHT22;90;48.810;9.120;2024-01-06T08:29:18;6.90;79.60
210;DHT22;90;48.810;9.120;2024-01-06T08:31:45;6.80;79.10
210;DHT22;90;48.810;9.120;2024-01-06T08:34:38;6.80;78.70
210;DHT22;90;48.810;9.120;2024-01-06T08:37:25;6.70;78.20
210;DHT22;90;48.810;9.120;2024-01-06T08:39:52;6.70;78.10
210;DHT22;90;48.810;9.120;2024-01-06T08:42:19;6.70;78.70
210;DHT22;90;48.810;9.120;2024-01-06T08:44:47;6.70;78.90
210;DHT22;90;48.810;9.120;2024-01-06T08:47:14;6.70;78.70
210;DHT22;90;48.810;9.120;2024-01-06T08:49:41;6.50;78.70
210;DHT22;90;48.810;9.120;2024-01-06T08:58:42;6.50;79.70
210;DHT22;90;48.810;9.120;2024-01-06T09:18:22;6.60;80.40
210;DHT22;90;48.810;9.120;2024-01-06T09:20:58;6.50;80.70
210;DHT22;90;48.810;9.120;2024-01-06T09:23:40;6.60;80.50
210;DHT22;90;48.810;9.120;2024-01-06T09:26:17;6.60;80.70
210;DHT22;90;48.810;9.120;2024-01-06T09:29:07;6.50;80.50
210;DHT22;90;48.810;9.120;2024-01-06T09:31:41;6.60;81.40
210;DHT22;90;48.810;9.120;2024-01-06T09:37:56;6.60;81.30
210;DHT22;90;48.810;9.120;2024-01-06T09:40:31;6.60;81.50
210;DHT22;90;48.810;9.120;2024-01-06T09:43:08;6.70;81.00
210;DHT22;90;48.810;9.120;2024-01-06T09:45:35;6.60;80.70
210;DHT22;90;48.810;9.120;2024-01-06T09:48:47;6.60;81.50
210;DHT22;90;48.810;9.120;2024-01-06T09:57:11;6.60;81.00
210;DHT22;90;48.810;9.120;2024-01-06T09:59:42;6.60;81.70
210;DHT22;90;48.810;9.120;2024-01-06T10:02:41;6.60;81.90
210;DHT22;90;48.810;9.120;2024-01-06T10:08:58;6.70;86.40
210;DHT22;90;48.810;9.120;2024-01-06T10:11:46;6.70;83.60
210;DHT22;90;48.810;9.120;2024-01-06T10:14:36;6.70;84.00
210;DHT22;90;48.810;9.120;2024-01-06T10:17:36;6.70;84.50
210;DHT22;90;48.810;9.120;2024-01-06T10:20:40;6.60;85.10
210;DHT22;90;48.810;9.120;2024-01-06T10:23:33;6.70;85.10
210;DHT22;90;48.810;9.120;2024-01-06T10:26:21;6.80;84.60
210;DHT22;90;48.810;9.120;2024-01-06T10:28:59;6.70;85.00
210;DHT22;90;48.810;9.120;2024-01-06T10:31:41;6.70;85.30
210;DHT22;90;48.810;9.120;2024-01-06T10:34:08;6.70;85.60
210;DHT22;90;48.810;9.120;2024-01-06T10:37:03;6.70;85.50
210;DHT22;90;48.810;9.120;2024-01-06T10:39:47;6.60;85.80
210;DHT22;90;48.810;9.120;2024-01-06T10:42:53;6.60;85.50
210;DHT22;90;48.810;9.120;2024-01-06T10:48:52;6.50;86.20
210;DHT22;90;48.810;9.120;2024-01-06T10:51:32;6.50;86.50
210;DHT22;90;48.810;9.120;2024-01-06T10:54:23;6.50;86.80
210;DHT22;90;48.810;9.120;2024-01-06T10:57:14;6.40;87.10
210;DHT22;90;48.810;9.120;2024-01-06T10:59:49;6.40;87.60
210;DHT22;90;48.810;9.120;2024-01-06T11:02:20;6.30;88.00
210;DHT22;90;48.810;9.120;2024-01-06T11:04:52;6.30;88.20
210;DHT22;90;48.810;9.120;2024-01-06T11:07:24;6.40;88.20
210;DHT22;90;48.810;9.120;2024-01-06T11:09:56;6.50;88.20
210;DHT22;90;48.810;9.120;2024-01-06T11:12:23;6.40;88.60
210;DHT22;90;48.810;9.120;2024-01-06T11:14:59;6.40;88.30
210;DHT22;90;48.810;9.120;2024-01-06T11:17:54;6.50;88.30
210;DHT22;90;48.810;9.120;2024-01-06T11:20:33;6.60;87.50
210;DHT22;90;48.810;9.120;2024-01-06T11:23:21;6.60;87.50
210;DHT22;90;48.810;9.120;2024-01-06T11:25:54;6.60;87.40
210;DHT22;90;48.810;9.120;2024-01-06T11:28:46;6.50;87.40
210;DHT22;90;48.810;9.120;2024-01-06T11:34:41;6.40;88.30
210;DHT22;90;48.810;9.120;2024-01-06T11:37:17;6.40;88.40
210;DHT22;90;48.810;9.120;2024-01-06T11:39:50;6.50;88.40
210;DHT22;90;48.810;9.120;2024-01-06T11:42:18;6.50;88.80
210;DHT22;90;48.810;9.120;2024-01-06T11:45:26;6.50;88.60
210;DHT22;90;48.810;9.120;2024-01-06T11:47:48;6.40;88.40
210;DHT22;90;48.810;9.120;2024-01-06T11:50:28;6.50;88.30
210;DHT22;90;48.810;9.120;2024-01-06T11:53:01;6.50;87.90
210;DHT22;90;48.810;9.120;2024-01-06T11:55:28;6.40;88.10
210;DHT22;90;48.810;9.120;2024-01-06T11:57:57;6.50;88.20
210;DHT22;90;48.810;9.120;2024-01-06T12:00:27;6.50;88.40
210;DHT22;90;48.810;9.120;2024-01-06T12:02:56;6.50;88.70
210;DHT22;90;48.810;9.120;2024-01-06T12:05:24;6.50;88.80
210;DHT22;90;48.810;9.120;2024-01-06T12:07:56;6.50;88.80
210;DHT22;90;48.810;9.120;2024-01-06T12:10:26;6.50;88.80
210;DHT22;90;48.810;9.120;2024-01-06T12:12:58;6.40;88.60
210;DHT22;90;48.810;9.120;2024-01-06T12:15:25;6.40;88.60
210;DHT22;90;48.810;9.120;2024-01-06T12:17:52;6.30;88.60
210;DHT22;90;48.810;9.120;2024-01-06T12:20:19;6.40;88.90
210;DHT22;90;48.810;9.120;2024-01-06T12:22:47;6.40;88.80
210;DHT22;90;48.810;9.120;2024-01-06T12:25:14;7.10;96.80
210;DHT22;90;48.810;9.120;2024-01-06T12:27:44;7.10;89.60
210;DHT22;90;48.810;9.120;2024-01-06T12:30:14;6.90;87.30
210;DHT22;90;48.810;9.120;2024-01-06T12:32:44;6.80;87.50
210;DHT22;90;48.810;9.120;2024-01-06T12:35:12;6.70;87.30
210;DHT22;90;48.810;9.120;2024-01-06T12:37:41;6.60;88.20
210;DHT22;90;48.810;9.120;2024-01-06T12:40:09;6.60;88.30
210;DHT22;90;48.810;9.120;2024-01-06T12:42:36;6.60;88.30
210;DHT22;90;48.810;9.120;2024-01-06T12:45:06;6.60;88.20
210;DHT22;90;48.810;9.120;2024-01-06T12:47:34;6.60;87.90
210;DHT22;90;48.810;9.120;2024-01-06T12:50:00;6.60;87.90
210;DHT22;90;48.810;9.120;2024-01-06T12:52:28;6.60;88.20
210;DHT22;90;48.810;9.120;2024-01-06T12:54:55;6.60;88.20
210;DHT22;90;48.810;9.120;2024-01-06T12:57:23;6.50;88.50
210;DHT22;90;48.810;9.120;2024-01-06T12:59:51;6.50;88.50
210;DHT22;90;48.810;9.120;2024-01-06T13:02:19;6.50;88.40
210;DHT22;90;48.810;9.120;2024-01-06T13:04:46;6.50;88.50
210;DHT22;90;48.810;9.120;2024-01-06T13:07:13;6.40;89.10
210;DHT22;90;48.810;9.120;2024-01-06T13:09:41;6.40;88.80
210;DHT22;90;48.810;9.120;2024-01-06T13:12:08;6.40;88.90
210;DHT22;90;48.810;9.120;2024-01-06T13:14:35;6.40;89.00
210;DHT22;90;48.810;9.120;2024-01-06T13:17:03;6.30;89.40
210;DHT22;90;48.810;9.120;2024-01-06T13:19:32;6.40;89.20
210;DHT22;90;48.810;9.120;2024-01-06T13:22:03;6.40;89.60
210;DHT22;90;48.810;9.120;2024-01-06T13:24:38;6.40;89.20
210;DHT22;90;48.810;9.120;2024-01-06T13:27:09;6.30;89.60
210;DHT22;90;48.810;9.120;2024-01-06T13:29:49;6.20;90.10
210;DHT22;90;48.810;9.120;2024-01-06T13:32:35;6.30;90.10
210;DHT22;90;48.810;9.120;2024-01-06T13:35:07;6.30;90.30
210;DHT22;90;48.810;9.120;2024-01-06T13:37:40;6.40;90.00
210;DHT22;90;48.810;9.120;2024-01-06T13:40:27;6.30;90.00
210;DHT22;90;48.810;9.120;2024-01-06T13:43:01;6.30;90.00
210;DHT22;90;48.810;9.120;2024-01-06T13:45:30;6.30;90.10
210;DHT22;90;48.810;9.120;2024-01-06T13:47:57;6.30;90.50
210;DHT22;90;48.810;9.120;2024-01-06T13:50:25;6.30;90.00
210;DHT22;90;48.810;9.120;2024-01-06T13:52:52;6.40;89.60
210;DHT22;90;48.810;9.120;2024-01-06T13:55:19;6.30;89.90
210;DHT22;90;48.810;9.120;2024-01-06T13:57:46;6.20;90.40
210;DHT22;90;48.810;9.120;2024-01-06T14:00:13;6.20;90.60
210;DHT22;90;48.810;9.120;2024-01-06T14:02:44;6.30;90.40
210;DHT22;90;48.810;9.120;2024-01-06T14:05:12;6.30;90.30
210;DHT22;90;48.810;9.120;2024-01-06T14:07:44;6.30;90.50
210;DHT22;90;48.810;9.120;2024-01-06T14:10:14;6.30;90.70
210;DHT22;90;48.810;9.120;2024-01-06T14:12:41;6.30;90.60
210;DHT22;90;48.810;9.120;2024-01-06T14:15:09;6.30;90.80
210;DHT22;90;48.810;9.120;2024-01-06T14:17:36;6.30;90.50
210;DHT22;90;48.810;9.120;2024-01-06T14:20:03;6.20;90.80
210;DHT22;90;48.810;9.120;2024-01-06T14:22:30;6.20;91.00
210;DHT22;90;48.810;9.120;2024-01-06T14:24:58;6.30;90.90
210;DHT22;90;48.810;9.120;2024-01-06T14:27:25;6.30;90.90
210;DHT22;90;48.810;9.120;2024-01-06T14:29:54;6.40;90.90
210;DHT22;90;48.810;9.120;2024-01-06T14:32:21;6.40;90.70
210;DHT22;90;48.810;9.120;2024-01-06T14:34:49;6.30;91.10
210;DHT22;90;48.810;9.120;2024-01-06T14:37:16;6.30;91.70
210;DHT22;90;48.810;9.120;2024-01-06T14:39:43;6.20;91.90
210;DHT22;90;48.810;9.120;2024-01-06T14:42:12;6.20;92.70
210;DHT22;90;48.810;9.120;2024-01-06T14:44:39;6.30;92.70
210;DHT22;90;48.810;9.120;2024-01-06T14:47:06;6.30;92.50
210;DHT22;90;48.810;9.120;2024-01-06T14:49:33;6.20;92.60
210;DHT22;90;48.810;9.120;2024-01-06T14:52:00;6.20;92.70
210;DHT22;90;48.810;9.120;2024-01-06T14:54:28;6.20;92.70
210;DHT22;90;48.810;9.120;2024-01-06T14:56:56;6.20;92.00
210;DHT22;90;48.810;9.120;2024-01-06T14:59:24;6.20;92.10
210;DHT22;90;48.810;9.120;2024-01-06T15:01:51;6.20;92.50
210;DHT22;90;48.810;9.120;2024-01-06T15:04:19;6.20;92.50
210;DHT22;90;48.810;9.120;2024-01-06T15:06:46;6.30;92.20
210;DHT22;90;48.810;9.120;2024-01-06T15:09:13;6.30;92.10
210;DHT22;90;48.810;9.120;2024-01-06T15:11:40;6.20;92.30
210;DHT22;90;48.810;9.120;2024-01-06T15:14:07;6.30;92.30
210;DHT22;90;48.810;9.120;2024-01-06T15:16:35;6.60;96.80
210;DHT22;90;48.810;9.120;2024-01-06T15:19:03;6.50;93.10
210;DHT22;90;48.810;9.120;2024-01-06T15:21:29;6.50;92.10
210;DHT22;90;48.810;9.120;2024-01-06T15:23:58;6.40;91.80
210;DHT22;90;48.810;9.120;2024-01-06T15:26:26;6.30;91.90
210;DHT22;90;48.810;9.120;2024-01-06T15:28:53;6.20;92.50
210;DHT22;90;48.810;9.120;2024-01-06T15:31:21;6.30;92.50
210;DHT22;90;48.810;9.120;2024-01-06T15:33:49;6.40;93.70
210;DHT22;90;48.810;9.120;2024-01-06T15:36:16;6.70;96.80
210;DHT22;90;48.810;9.120;2024-01-06T15:38:43;6.70;95.50
210;DHT22;90;48.810;9.120;2024-01-06T15:41:10;6.70;93.80
210;DHT22;90;48.810;9.120;2024-01-06T15:43:37;6.60;93.20
210;DHT22;90;48.810;9.120;2024-01-06T15:46:04;6.50;92.60
210;DHT22;90;48.810;9.120;2024-01-06T15:48:32;6.50;92.20
210;DHT22;90;48.810;9.120;2024-01-06T15:51:00;6.40;92.20
210;DHT22;90;48.810;9.120;2024-01-06T15:53:27;6.40;92.40
210;DHT22;90;48.810;9.120;2024-01-06T15:55:54;6.40;92.30
210;DHT22;90;48.810;9.120;2024-01-06T15:58:21;6.40;93.50
210;DHT22;90;48.810;9.120;2024-01-06T16:00:48;6.40;93.40
210;DHT22;90;48.810;9.120;2024-01-06T16:03:16;6.50;93.50
210;DHT22;90;48.810;9.120;2024-01-06T16:05:43;6.40;92.90
210;DHT22;90;48.810;9.120;2024-01-06T16:08:12;6.30;93.00
210;DHT22;90;48.810;9.120;2024-01-06T16:10:40;6.30;93.20
210;DHT22;90;48.810;9.120;2024-01-06T16:13:08;6.30;93.20
210;DHT22;90;48.810;9.120;2024-01-06T16:15:35;6.20;93.10
210;DHT22;90;48.810;9.120;2024-01-06T16:18:02;6.20;93.30
210;DHT22;90;48.810;9.120;2024-01-06T16:20:29;6.20;93.30
210;DHT22;90;48.810;9.120;2024-01-06T16:22:57;6.20;93.70
210;DHT22;90;48.810;9.120;2024-01-06T16:25:44;6.20;94.30
210;DHT22;90;48.810;9.120;2024-01-06T16:28:14;6.30;95.00
210;DHT22;90;48.810;9.120;2024-01-06T16:30:58;6.30;94.20
210;DHT22;90;48.810;9.120;2024-01-06T16:33:45;6.30;93.80
210;DHT22;90;48.810;9.120;2024-01-06T16:36:31;6.20;94.10
210;DHT22;90;48.810;9.120;2024-01-06T16:39:08;6.10;94.70
210;DHT22;90;48.810;9.120;2024-01-06T16:41:37;6.20;94.30
210;DHT22;90;48.810;9.120;2024-01-06T16:44:07;6.20;94.50
210;DHT22;90;48.810;9.120;2024-01-06T16:46:38;6.20;94.60
210;DHT22;90;48.810;9.120;2024-01-06T16:49:05;6.20;94.30
210;DHT22;90;48.810;9.120;2024-01-06T16:51:32;6.20;94.60
210;DHT22;90;48.810;9.120;2024-01-06T16:53:59;6.40;96.80
210;DHT22;90;48.810;9.120;2024-01-06T16:56:26;6.40;96.30
210;DHT22;90;48.810;9.120;2024-01-06T16:58:55;6.30;95.60
210;DHT22;90;48.810;9.120;2024-01-06T17:01:23;6.30;95.10
210;DHT22;90;48.810;9.120;2024-01-06T17:03:50;6.30;94.90
210;DHT22;90;48.810;9.120;2024-01-06T17:06:21;6.30;95.10
210;DHT22;90;48.810;9.120;2024-01-06T17:12:38;6.10;95.50
210;DHT22;90;48.810;9.120;2024-01-06T17:21:52;6.10;95.30
210;DHT22;90;48.810;9.120;2024-01-06T17:27:32;6.10;95.30
210;DHT22;90;48.810;9.120;2024-01-06T17:36:39;6.10;95.50
210;DHT22;90;48.810;9.120;2024-01-06T17:42:43;6.10;95.70
210;DHT22;90;48.810;9.120;2024-01-06T17:45:10;6.10;96.00
210;DHT22;90;48.810;9.120;2024-01-06T17:47:37;6.10;96.00
210;DHT22;90;48.810;9.120;2024-01-06T17:50:07;6.10;96.10
210;DHT22;90;48.810;9.120;2024-01-06T17:52:35;6.20;96.00
210;DHT22;90;48.810;9.120;2024-01-06T17:55:02;6.20;96.00
210;DHT22;90;48.810;9.120;2024-01-06T17:57:29;6.10;96.20
210;DHT22;90;48.810;9.120;2024-01-06T17:59:59;6.20;96.30
210;DHT22;90;48.810;9.120;2024-01-06T18:02:26;6.20;96.30
210;DHT22;90;48.810;9.120;2024-01-06T18:04:53;6.10;96.60
210;DHT22;90;48.810;9.120;2024-01-06T18:07:20;6.20;96.60
210;DHT22;90;48.810;9.120;2024-01-06T18:09:48;6.30;96.40
210;DHT22;90;48.810;9.120;2024-01-06T18:12:36;6.30;96.30
210;DHT22;90;48.810;9.120;2024-01-06T18:15:09;6.30;96.40
210;DHT22;90;48.810;9.120;2024-01-06T18:17:36;6.30;96.40
210;DHT22;90;48.810;9.120;2024-01-06T18:20:04;6.30;96.30
210;DHT22;90;48.810;9.120;2024-01-06T18:22:31;6.30;96.20
210;DHT22;90;48.810;9.120;2024-01-06T18:25:00;6.30;96.30
210;DHT22;90;48.810;9.120;2024-01-06T18:27:27;6.20;96.40
210;DHT22;90;48.810;9.120;2024-01-06T18:29:54;6.30;96.40
210;DHT22;90;48.810;9.120;2024-01-06T18:32:21;6.30;96.60
210;DHT22;90;48.810;9.120;2024-01-06T18:34:49;6.30;96.60
210;DHT22;90;48.810;9.120;2024-01-06T18:37:16;6.30;96.50
210;DHT22;90;48.810;9.120;2024-01-06T18:39:43;6.20;96.70
210;DHT22;90;48.810;9.120;2024-01-06T18:42:11;6.20;96.70
210;DHT22;90;48.810;9.120;2024-01-06T18:44:39;6.20;96.80
210;DHT22;90;48.810;9.120;2024-01-06T18:47:08;6.20;96.80
210;DHT22;90;48.810;9.120;2024-01-06T18:49:37;6.20;96.80
210;DHT22;90;48.810;9.120;2024-01-06T18:52:06;6.30;96.80
210;DHT22;90;48.810;9.120;2024-01-06T18:54:33;6.20;96.70
210;DHT22;90;48.810;9.120;2024-01-06T18:57:01;6.30;96.70
210;DHT22;90;48.810;9.120;2024-01-06T18:59:29;6.40;96.50
210;DHT22;90;48.810;9.120;2024-01-06T19:01:59;6.30;96.40
210;DHT22;90;48.810;9.120;2024-01-06T19:04:25;6.40;96.40
210;DHT22;90;48.810;9.120;2024-01-06T19:06:52;6.40;96.10
210;DHT22;90;48.810;9.120;2024-01-06T19:09:19;6.40;96.30
210;DHT22;90;48.810;9.120;2024-01-06T19:11:46;6.40;96.10
210;DHT22;90;48.810;9.120;2024-01-06T19:14:13;6.30;96.10
210;DHT22;90;48.810;9.120;2024-01-06T19:16:42;6.40;96.20
210;DHT22;90;48.810;9.120;2024-01-06T19:19:11;6.40;95.80
210;DHT22;90;48.810;9.120;2024-01-06T19:21:38;6.40;95.70
210;DHT22;90;48.810;9.120;2024-01-06T19:24:05;6.30;95.70
210;DHT22;90;48.810;9.120;2024-01-06T19:26:31;6.30;95.80
210;DHT22;90;48.810;9.120;2024-01-06T19:28:58;6.30;95.80
210;DHT22;90;48.810;9.120;2024-01-06T19:31:27;6.30;95.60
210;DHT22;90;48.810;9.120;2024-01-06T19:33:57;6.30;95.40
210;DHT22;90;48.810;9.120;2024-01-06T19:36:24;6.30;95.50
210;DHT22;90;48.810;9.120;2024-01-06T19:38:51;6.30;95.60
210;DHT22;90;48.810;9.120;2024-01-06T19:41:18;6.40;95.80
210;DHT22;90;48.810;9.120;2024-01-06T19:43:44;6.30;95.80
210;DHT22;90;48.810;9.120;2024-01-06T19:46:11;6.40;95.40
210;DHT22;90;48.810;9.120;2024-01-06T19:48:38;6.30;95.50
210;DHT22;90;48.810;9.120;2024-01-06T19:51:06;6.30;95.70
210;DHT22;90;48.810;9.120;2024-01-06T19:53:33;6.20;96.20
210;DHT22;90;48.810;9.120;2024-01-06T19:56:00;6.20;96.50
210;DHT22;90;48.810;9.120;2024-01-06T19:58:41;6.10;96.70
210;DHT22;90;48.810;9.120;2024-01-06T20:01:08;6.20;96.60
210;DHT22;90;48.810;9.120;2024-01-06T20:03:39;6.20;96.60
210;DHT22;90;48.810;9.120;2024-01-06T20:06:14;6.20;96.40
210;DHT22;90;48.810;9.120;2024-01-06T20:08:42;6.20;96.10
210;DHT22;90;48.810;9.120;2024-01-06T20:11:11;6.20;96.30
210;DHT22;90;48.810;9.120;2024-01-06T20:13:38;6.20;96.50
210;DHT22;90;48.810;9.120;2024-01-06T20:16:05;6.20;96.40
210;DHT22;90;48.810;9.120;2024-01-06T20:18:33;6.30;96.30
210;DHT22;90;48.810;9.120;2024-01-06T20:21:00;6.30;96.20
210;DHT22;90;48.810;9.120;2024-01-06T20:26:54;6.30;96.20
210;DHT22;90;48.810;9.120;2024-01-06T20:29:21;6.20;96.20
210;DHT22;90;48.810;9.120;2024-01-06T20:31:48;6.20;96.20
210;DHT22;90;48.810;9.120;2024-01-06T20:34:14;6.20;96.50
210;DHT22;90;48.810;9.120;2024-01-06T20:36:41;6.20;96.50
210;DHT22;90;48.810;9.120;2024-01-06T20:39:08;6.20;96.50
210;DHT22;90;48.810;9.120;2024-01-06T20:41:35;6.20;96.40
210;DHT22;90;48.810;9.120;2024-01-06T20:44:04;6.20;96.30
210;DHT22;90;48.810;9.120;2024-01-06T20:46:30;6.20;96.20
210;DHT22;90;48.810;9.120;2024-01-06T20:48:57;6.20;96.20
210;DHT22;90;48.810;9.120;2024-01-06T20:51:24;6.20;96.30
210;DHT22;90;48.810;9.120;2024-01-06T20:53:50;6.20;96.20
210;DHT22;90;48.810;9.120;2024-01-06T20:56:17;6.20;96.30
210;DHT22;90;48.810;9.120;2024-01-06T20:58:44;6.20;96.30
210;DHT22;90;48.810;9.120;2024-01-06T21:01:12;6.20;96.40
210;DHT22;90;48.810;9.120;2024-01-06T21:03:39;6.20;96.40
210;DHT22;90;48.810;9.120;2024-01-06T21:06:06;6.10;96.70
210;DHT22;90;48.810;9.120;2024-01-06T21:08:33;6.20;96.80
210;DHT22;90;48.810;9.120;2024-01-06T21:11:00;6.20;96.50
210;DHT22;90;48.810;9.120;2024-01-06T21:13:27;6.10;96.60
210;DHT22;90;48.810;9.120;2024-01-06T21:15:53;6.10;96.70
210;DHT22;90;48.810;9.120;2024-01-06T21:18:21;6.10;96.80
210;DHT22;90;48.810;9.120;2024-01-06T21:20:48;6.00;96.80
210;DHT22;90;48.810;9.120;2024-01-06T21:23:15;6.10;96.80
210;DHT22;90;48.810;9.120;2024-01-06T21:25:41;6.10;96.80
210;DHT22;90;48.810;9.120;2024-01-06T21:28:08;6.10;96.80
210;DHT22;90;48.810;9.120;2024-01-06T21:30:35;6.20;96.70
210;DHT22;90;48.810;9.120;2024-01-06T21:33:02;6.20;96.70
210;DHT22;90;48.810;9.120;2024-01-06T21:35:30;6.10;96.80
210;DHT22;90;48.810;9.120;2024-01-06T21:37:57;6.20;96.80
210;DHT22;90;48.810;9.120;2024-01-06T21:40:24;6.10;96.80
210;DHT22;90;48.810;9.120;2024-01-06T21:42:52;6.20;96.80
210;DHT22;90;48.810;9.120;2024-01-06T21:45:20;6.20;96.80
210;DHT22;90;48.810;9.120;2024-01-06T21:47:47;6.20;96.70
210;DHT22;90;48.810;9.120;2024-01-06T21:50:17;6.20;96.70
210;DHT22;90;48.810;9.120;2024-01-06T21:52:45;6.10;96.60
210;DHT22;90;48.810;9.120;2024-01-06T21:55:12;6.10;96.80
210;DHT22;90;48.810;9.120;2024-01-06T21:57:39;6.10;96.80
210;DHT22;90;48.810;9.120;2024-01-06T22:00:07;6.10;96.80
210;DHT22;90;48.810;9.120;2024-01-06T22:02:37;6.10;96.80
210;DHT22;90;48.810;9.120;2024-01-06T22:05:04;6.00;96.80
210;DHT22;90;48.810;9.120;2024-01-06T22:07:31;6.00;96.80
210;DHT22;90;48.810;9.120;2024-01-06T22:09:59;6.00;96.80
210;DHT22;90;48.810;9.120;2024-01-06T22:12:26;6.00;96.80
210;DHT22;90;48.810;9.120;2024-01-06T22:14:53;6.00;96.80
210;DHT22;90;48.810;9.120;2024-01-06T22:17:19;6.10;96.80
210;DHT22;90;48.810;9.120;2024-01-06T22:19:46;6.00;96.80
210;DHT22;90;48.810;9.120;2024-01-06T22:22:13;6.10;96.80
210;DHT22;90;48.810;9.120;2024-01-06T22:24:40;6.10;96.80
210;DHT22;90;48.810;9.120;2024-01-06T22:27:08;6.10;96.80
210;DHT22;90;48.810;9.120;2024-01-06T22:29:35;6.10;96.80
210;DHT22;90;48.810;9.120;2024-01-06T22:32:05;6.10;96.80
210;DHT22;90;48.810;9.120;2024-01-06T22:34:33;6.10;96.80
210;DHT22;90;48.810;9.120;2024-01-06T22:37:00;6.10;96.80
210;DHT22;90;48.810;9.120;2024-01-06T22:39:27;6.10;96.80
210;DHT22;90;48.810;9.120;2024-01-06T22:41:54;6.10;96.80
210;DHT22;90;48.810;9.120;2024-01-06T22:44:22;6.20;96.80
210;DHT22;90;48.810;9.120;2024-01-06T22:46:49;6.20;96.40
210;DHT22;90;48.810;9.120;2024-01-06T22:49:16;6.20;96.50
210;DHT22;90;48.810;9.120;2024-01-06T22:51:43;6.10;96.60
210;DHT22;90;48.810;9.120;2024-01-06T22:54:10;6.20;96.80
210;DHT22;90;48.810;9.120;2024-01-06T22:56:37;6.20;96.70
210;DHT22;90;48.810;9.120;2024-01-06T22:59:03;6.20;96.70
210;DHT22;90;48.810;9.120;2024-01-06T23:01:31;6.30;96.70
210;DHT22;90;48.810;9.120;2024-01-06T23:03:59;6.30;96.10
210;DHT22;90;48.810;9.120;2024-01-06T23:06:25;6.30;96.00
210;DHT22;90;48.810;9.120;2024-01-06T23:08:53;6.20;95.80